nws-alerts: Checking more than four warning/county codes can delay the loading of your pages. You should use a cron job to get the data.

Nearby METAR Reports

 

KFCI - Richmond/Chester, Virginia, USA
Distance from station: ESE 7mi, 12km
Updated: Fri, 18-Oct-2019 11:56am EDT
Clear
Clear
 Wind from NW
Wind: NW 10 mph , 17 km/h, Gust: 20 mph , 31 km/h
Temperature: 59°F , 15°C
Dew Point: 36°F , 2°C
Humidity: 42%
Barometer: 30.01 inHg , 1016.3 hPa
Clouds: Clear
Visibility: 10 miles , 16 km
2019/10/18 15:56 KFCI 181556Z AUTO 32009G17KT 10SM CLR 15/02 A3001 RMK AO2 SLP175 T01500022
KPTB - Petersburg, Virginia, USA
Distance from station: SSE 19mi, 31km
Updated: Fri, 18-Oct-2019 12:15pm EDT
Clear
Clear
 Wind from WNW
Wind: WNW 9 mph , 15 km/h, Gust: 17 mph , 28 km/h
Temperature: 61°F , 16°C
Dew Point: 32°F , 0°C
Humidity: 34%
Barometer: 30.02 inHg , 1016.6 hPa
Clouds: Clear
Visibility: 10 miles , 16 km
2019/10/18 16:15 KPTB 181615Z AUTO 29008G15KT 10SM CLR 16/00 A3002 RMK AO2 T01570000
 
KRIC - Richmond, Virginia, USA
Distance from station: ENE 19mi, 31km
Updated: Fri, 18-Oct-2019 11:54am EDT
Few Clouds
Few Clouds
 Wind from NW
Wind: NW 16 mph , 26 km/h, Gust: 23 mph , 37 km/h
Temperature: 61°F , 16°C
Dew Point: 36°F , 2°C
Humidity: 39%
Barometer: 30.00 inHg , 1015.9 hPa
Clouds: Few Clouds
Visibility: 10 miles , 16 km
Cloud details: Few Clouds 5000 ft
2019/10/18 15:54 KRIC 181554Z 32014G20KT 10SM FEW050 16/02 A3000 RMK AO2 SLP164 T01560017
KOFP - Richmond/Hanover, Virginia, USA
Distance from station: NNE 22mi, 36km
Updated: Fri, 18-Oct-2019 11:54am EDT
Clear
Clear
 Wind from NW
Wind: NW 9 mph , 15 km/h
Temperature: 59°F , 15°C
Dew Point: 34°F , 1°C
Humidity: 39%
Barometer: 30.01 inHg , 1016.3 hPa
Clouds: Clear
Visibility: 10 miles , 16 km
2019/10/18 15:54 KOFP 181554Z AUTO 31008KT 280V340 10SM CLR 15/01 A3001 RMK AO2 SLP164 T01500011
 
KW96 - Quinton, Virginia, USA
Distance from station: E 28mi, 46km
Updated: Fri, 18-Oct-2019 12:35pm EDT
Clear
Clear
 Wind from NNW
Wind: NNW 8 mph , 13 km/h, Gust: 20 mph , 31 km/h
Temperature: 59°F , 15°C
Dew Point: 36°F , 2°C
Humidity: 42%
Barometer: 29.99 inHg , 1015.6 hPa
Clouds: Clear
Visibility: 10 miles , 16 km
2019/10/18 16:35 KW96 181635Z AUTO 34007G17KT 10SM CLR 15/02 A2999 RMK AO1 T01490020
KBKT - Blackstone Army, Virginia, USA
Distance from station: SW 30mi, 48km
Updated: Fri, 18-Oct-2019 12:15pm EDT
Clear
Clear
 Wind from NW
Wind: NW 5 mph , 7 km/h
Temperature: 61°F , 16°C
Dew Point: 34°F , 1°C
Humidity: 36%
Barometer: 30.02 inHg , 1016.6 hPa
Clouds: Clear
Visibility: 10 miles , 16 km
2019/10/18 16:15 KBKT 181615Z AUTO 31004KT 10SM CLR 16/01 A3002 RMK AO1 T01550010
 
KW81 - Crewe, Virginia, USA
Distance from station: SW 30mi, 49km
Updated: Fri, 18-Oct-2019 12:15pm EDT
Clear
Clear
 Wind from NW
Wind: NW 8 mph , 13 km/h
Temperature: 57°F , 14°C
Dew Point: 28°F , -2°C
Humidity: 33%
Barometer: 30.02 inHg , 1016.6 hPa
Clouds: Clear
Visibility: 10 miles , 16 km
2019/10/18 16:15 KW81 181615Z AUTO 31007KT 290V350 10SM CLR 14/M02 A3002 RMK AO1 T01411022
K7W4 - Bumpass, Virginia, USA
Distance from station: N 38mi, 61km
Updated: Fri, 18-Oct-2019 12:15pm EDT
Clear
Clear
 Wind from W
Wind: W 3 mph , 6 km/h
Temperature: 59°F , 15°C
Dew Point: 32°F , 0°C
Humidity: 36%
Barometer: 30.01 inHg , 1016.3 hPa
Clouds: Clear
Visibility: 10 miles , 16 km
2019/10/18 16:15 K7W4 181615Z AUTO 27003KT 10SM CLR 15/00 A3001 RMK AO1 T01480001
 
KFVX - Farmville, Virginia, USA
Distance from station: W 43mi, 69km
Updated: Fri, 18-Oct-2019 12:15pm EDT
Clear
Clear
 Wind from NNE
Wind: NNE 10 mph , 17 km/h
Temperature: 61°F , 16°C
Dew Point: 34°F , 1°C
Humidity: 36%
Barometer: 30.01 inHg , 1016.3 hPa
Clouds: Clear
Visibility: 10 miles , 16 km
2019/10/18 16:15 KFVX 181615Z AUTO 02009KT 340V050 10SM CLR 16/01 A3001 RMK AO2 T01560011
KW31 - Kenbridge, Virginia, USA
Distance from station: SW 43mi, 70km
Updated: Fri, 18-Oct-2019 12:35pm EDT
Clear
Clear
 Wind from NNW
Wind: NNW 12 mph , 19 km/h, Gust: 16 mph , 26 km/h
Temperature: 59°F , 15°C
Dew Point: 34°F , 1°C
Humidity: 39%
Barometer: 30.02 inHg , 1016.6 hPa
Clouds: Clear
Visibility: 10 miles , 16 km
2019/10/18 16:35 KW31 181635Z AUTO 34010G14KT 10SM CLR 15/01 A3002 RMK AO1 T01450012
 
KLKU - Louisa, Virginia, USA
Distance from station: NNW 44mi, 72km
Updated: Fri, 18-Oct-2019 12:15pm EDT
Clear
Clear
 Wind from WNW
Wind: WNW 9 mph , 15 km/h, Gust: 20 mph , 31 km/h
Temperature: 59°F , 15°C
Dew Point: 34°F , 1°C
Humidity: 39%
Barometer: 30.04 inHg , 1017.3 hPa
Clouds: Clear
Visibility: 10 miles , 16 km
2019/10/18 16:15 KLKU 181615Z AUTO 30008G17KT 10SM CLR 15/01 A3004 RMK AO2 T01530010
KLVL - Lawrenceville, Virginia, USA
Distance from station: S 46mi, 75km
Updated: Fri, 18-Oct-2019 12:15pm EDT
Clear
Clear
 Wind from NW
Wind: NW 5 mph , 7 km/h
Temperature: 59°F , 15°C
Dew Point: 34°F , 1°C
Humidity: 39%
Barometer: 30.03 inHg , 1016.9 hPa
Clouds: Clear
Visibility: 10 miles , 16 km
2019/10/18 16:15 KLVL 181615Z AUTO 32004KT 10SM CLR 15/01 A3003 RMK AO1 T01540008
 
KAKQ - Norfolk/Wakefld, Virginia, USA
Distance from station: SE 47mi, 75km
Updated: Fri, 18-Oct-2019 11:54am EDT
Clear
Clear
 Wind from varies
Wind: varies 7 mph , 11 km/h
Temperature: 61°F , 16°C
Dew Point: 34°F , 1°C
Humidity: 36%
Barometer: 30.00 inHg , 1015.9 hPa
Clouds: Clear
Visibility: 10 miles , 16 km
2019/10/18 15:54 KAKQ 181554Z AUTO VRB06KT 10SM CLR 16/01 A3000 RMK AO2 SLP160 T01560011
KFYJ - West Point, Virginia, USA
Distance from station: E 48mi, 78km
Updated: Fri, 18-Oct-2019 12:15pm EDT
Clear
Clear
 Wind from WNW
Wind: WNW 6 mph , 9 km/h, Gust: 22 mph , 35 km/h
Temperature: 59°F , 15°C
Dew Point: 39°F , 4°C
Humidity: 48%
Barometer: 30.00 inHg , 1015.9 hPa
Clouds: Clear
Visibility: 10 miles , 16 km
2019/10/18 16:15 KFYJ 181615Z AUTO 30005G19KT 10SM CLR 15/04 A3000 RMK AO1 T01530036
 
KXSA - Tappahannock, Virginia, USA
Distance from station: NE 51mi, 82km
Updated: Fri, 18-Oct-2019 12:35pm EDT
Clear
Clear
 Wind from NNW
Wind: NNW 12 mph , 19 km/h, Gust: 20 mph , 31 km/h
Temperature: 59°F , 15°C
Dew Point: 37°F , 3°C
Humidity: 45%
Barometer: 29.99 inHg , 1015.6 hPa
Clouds: Clear
Visibility: 10 miles , 16 km
2019/10/18 16:35 KXSA 181635Z AUTO 34010G17KT 10SM CLR 15/03 A2999 RMK AO2 T01490027
KEMV - Emporia, Virginia, USA
Distance from station: S 52mi, 84km
Updated: Fri, 18-Oct-2019 12:35pm EDT
Clear
Clear
 Wind from NW
Wind: NW 9 mph , 15 km/h
Temperature: 61°F , 16°C
Dew Point: 36°F , 2°C
Humidity: 39%
Barometer: 30.03 inHg , 1016.9 hPa
Clouds: Clear
2019/10/18 16:35 KEMV 181635Z AUTO 32008KT CLR 16/02 A3003 RMK AO2 T01570021
 
KJGG - Williamsburg, Virginia, USA
Distance from station: ESE 53mi, 85km
Updated: Fri, 18-Oct-2019 12:15pm EDT
Clear
Clear
 Wind from NW
Wind: NW 15 mph , 24 km/h, Gust: 22 mph , 35 km/h
Temperature: 63°F , 17°C
Dew Point: 39°F , 4°C
Humidity: 42%
Barometer: 30.00 inHg , 1015.9 hPa
Clouds: Clear
Visibility: 10 miles , 16 km
2019/10/18 16:15 KJGG 181615Z AUTO 31013G19KT 10SM CLR 17/04 A3000 RMK AO1
KAVC - South Hill/Meckl, Virginia, USA
Distance from station: SSW 56mi, 90km
Updated: Fri, 18-Oct-2019 12:15pm EDT
Clear
Clear
 Wind from N
Wind: N 7 mph , 11 km/h
Temperature: 59°F , 15°C
Dew Point: 32°F , 0°C
Humidity: 36%
Barometer: 30.08 inHg , 1018.6 hPa
Clouds: Clear
Visibility: 10 miles , 16 km
2019/10/18 16:15 KAVC 181615Z AUTO 36006KT 10SM CLR 15/00 A3008 RMK AO2 T01501005
 
KGVE - Gordonsville, Virginia, USA
Distance from station: NNW 58mi, 93km
Updated: Fri, 18-Oct-2019 12:15pm EDT
Clear
Clear
 Wind from W
Wind: W 7 mph , 11 km/h
Temperature: 59°F , 15°C
Dew Point: 34°F , 1°C
Humidity: 39%
Barometer: 30.01 inHg , 1016.3 hPa
Clouds: Clear
Visibility: 10 miles , 16 km
2019/10/18 16:15 KGVE 181615Z AUTO 27006KT 10SM CLR 15/01 A3001 RMK AO1 T01510012
KEZF - Fredericksb/Shan, Virginia, USA
Distance from station: N 59mi, 95km
Updated: Fri, 18-Oct-2019 12:15pm EDT
Clear
Clear
 Wind from NNW
Wind: NNW 8 mph , 13 km/h, Gust: 24 mph , 39 km/h
Temperature: 61°F , 16°C
Dew Point: 39°F , 4°C
Humidity: 45%
Barometer: 29.99 inHg , 1015.6 hPa
Clouds: Clear
Visibility: 10 miles , 16 km
2019/10/18 16:15 KEZF 181615Z AUTO 33007G21KT 290V350 10SM CLR 16/04 A2999 RMK AO2 T01560038